createdAt,value
2018-11-29T00:00:48.832Z,70.30
2018-11-29T00:03:16.142Z,71.20
2018-11-29T00:05:43.434Z,70.10
2018-11-29T00:08:10.733Z,70.10
2018-11-29T00:10:38.772Z,70.20
2018-11-29T00:13:06.135Z,70.10
2018-11-29T00:15:33.798Z,69.60
2018-11-29T00:18:01.063Z,70.00
2018-11-29T00:20:28.424Z,69.80
2018-11-29T00:22:55.730Z,69.80
2018-11-29T00:25:23.013Z,70.00
2018-11-29T00:27:50.373Z,70.20
2018-11-29T00:30:20.486Z,70.30
2018-11-29T00:32:48.059Z,70.30
2018-11-29T00:35:15.895Z,70.90
2018-11-29T00:37:43.285Z,71.00
2018-11-29T00:40:18.898Z,71.00
2018-11-29T00:42:46.238Z,70.90
2018-11-29T00:45:15.155Z,71.30
2018-11-29T00:47:42.845Z,71.60
2018-11-29T00:50:11.876Z,71.50
2018-11-29T00:52:40.738Z,71.40
2018-11-29T00:55:09.986Z,71.10
2018-11-29T00:57:37.545Z,71.70
2018-11-29T01:00:10.030Z,71.40
2018-11-29T01:02:37.340Z,71.10
2018-11-29T01:05:05.039Z,71.20
2018-11-29T01:07:32.239Z,71.70
2018-11-29T01:09:59.544Z,71.20
2018-11-29T01:12:26.811Z,71.70
2018-11-29T01:14:54.152Z,71.90
2018-11-29T01:17:21.509Z,72.10
2018-11-29T01:19:48.806Z,72.40
2018-11-29T01:22:16.855Z,72.00
2018-11-29T01:24:44.107Z,72.10
2018-11-29T01:27:11.386Z,72.00
2018-11-29T01:29:38.644Z,71.90
2018-11-29T01:32:06.883Z,71.70
2018-11-29T01:34:34.169Z,71.70
2018-11-29T01:37:01.517Z,71.80
2018-11-29T01:39:28.877Z,71.80
2018-11-29T01:41:56.211Z,71.70
2018-11-29T01:44:23.498Z,71.60
2018-11-29T01:46:50.854Z,71.60
2018-11-29T01:49:18.295Z,71.90
2018-11-29T01:51:45.683Z,71.80
2018-11-29T01:54:13.037Z,71.50
2018-11-29T01:56:40.362Z,72.40
2018-11-29T01:59:07.670Z,72.20
2018-11-29T02:01:34.943Z,72.30
2018-11-29T02:04:02.336Z,72.10
2018-11-29T02:06:29.616Z,71.40
2018-11-29T02:08:56.993Z,71.20
2018-11-29T02:11:24.337Z,71.50
2018-11-29T02:13:51.662Z,71.40
2018-11-29T02:16:19.047Z,71.90
2018-11-29T02:18:46.339Z,72.30
2018-11-29T02:21:13.749Z,72.20
2018-11-29T02:23:41.067Z,71.70
2018-11-29T02:26:08.367Z,71.70
2018-11-29T02:28:35.614Z,71.70
2018-11-29T02:31:02.871Z,71.60
2018-11-29T02:33:30.211Z,72.30
2018-11-29T02:35:57.491Z,71.80
2018-11-29T02:38:24.839Z,71.60
2018-11-29T02:40:52.859Z,71.70
2018-11-29T02:43:20.159Z,71.40
2018-11-29T02:45:47.526Z,71.40
2018-11-29T02:48:14.804Z,71.60
2018-11-29T02:50:42.128Z,71.80
2018-11-29T02:53:09.447Z,71.90
2018-11-29T02:55:36.739Z,71.80
2018-11-29T02:58:04.155Z,71.70
2018-11-29T03:00:31.576Z,71.30
2018-11-29T03:02:58.835Z,71.40
2018-11-29T03:05:26.098Z,72.60
2018-11-29T03:07:53.346Z,72.10
2018-11-29T03:10:25.606Z,72.00
2018-11-29T03:12:52.947Z,72.10
2018-11-29T03:15:20.489Z,72.30
2018-11-29T03:17:47.889Z,72.60
2018-11-29T03:20:15.192Z,72.10
2018-11-29T03:22:42.546Z,72.70
2018-11-29T03:25:10.852Z,72.30
2018-11-29T03:27:38.928Z,72.30
2018-11-29T03:30:08.575Z,72.20
2018-11-29T03:32:35.993Z,72.20
2018-11-29T03:35:03.361Z,72.40
2018-11-29T03:37:30.645Z,71.70
2018-11-29T03:39:57.950Z,71.90
2018-11-29T03:42:25.214Z,71.90
2018-11-29T03:44:52.540Z,71.90
2018-11-29T03:47:19.848Z,71.80
2018-11-29T03:49:47.173Z,71.70
2018-11-29T03:52:14.503Z,71.80
2018-11-29T03:54:41.865Z,72.00
2018-11-29T03:57:09.278Z,71.40
2018-11-29T03:59:36.611Z,71.50
2018-11-29T04:02:04.228Z,71.40
2018-11-29T04:04:31.552Z,71.60
2018-11-29T04:06:58.925Z,71.30
2018-11-29T04:09:26.339Z,70.90
2018-11-29T04:11:53.634Z,71.00
2018-11-29T04:14:20.946Z,70.80
2018-11-29T04:16:48.242Z,70.50
2018-11-29T04:19:15.564Z,70.80
2018-11-29T04:21:42.918Z,70.50
2018-11-29T04:24:10.186Z,70.80
2018-11-29T04:26:37.509Z,71.00
2018-11-29T04:29:04.908Z,71.50
2018-11-29T04:31:32.216Z,71.10
2018-11-29T04:33:59.532Z,71.00
2018-11-29T04:36:26.931Z,70.80
2018-11-29T04:38:54.401Z,71.30
2018-11-29T04:41:21.704Z,71.40
2018-11-29T04:43:48.959Z,71.50
2018-11-29T04:46:48.225Z,71.80
2018-11-29T04:49:15.603Z,71.30
2018-11-29T04:51:42.904Z,71.70
2018-11-29T04:54:10.493Z,71.20
2018-11-29T04:56:38.296Z,71.20
2018-11-29T04:59:05.973Z,70.80
2018-11-29T05:01:33.312Z,71.20
2018-11-29T05:04:00.683Z,71.20
2018-11-29T05:06:28.036Z,70.60
2018-11-29T05:08:55.326Z,70.80
2018-11-29T05:11:22.641Z,70.00
2018-11-29T05:13:49.920Z,70.60
2018-11-29T05:16:17.422Z,70.10
2018-11-29T05:18:44.802Z,69.80
2018-11-29T05:21:12.092Z,70.20
2018-11-29T05:23:39.400Z,70.60
2018-11-29T05:26:06.671Z,70.50
2018-11-29T05:28:33.937Z,70.20
2018-11-29T05:31:01.247Z,70.30
2018-11-29T05:33:28.577Z,70.50
2018-11-29T05:35:55.969Z,69.80
2018-11-29T05:38:23.255Z,70.40
2018-11-29T05:40:50.663Z,69.60
2018-11-29T05:43:17.974Z,69.90
2018-11-29T05:45:45.327Z,69.70
2018-11-29T05:48:12.601Z,69.40
2018-11-29T05:50:39.947Z,69.50
2018-11-29T05:53:07.346Z,69.20
2018-11-29T05:55:34.680Z,69.70
2018-11-29T05:58:01.911Z,69.50
2018-11-29T06:00:29.311Z,69.60
2018-11-29T06:02:56.757Z,69.70
2018-11-29T06:05:24.035Z,69.00
2018-11-29T06:07:51.307Z,69.50
2018-11-29T06:10:20.598Z,70.30
2018-11-29T06:12:47.908Z,70.60
2018-11-29T06:15:15.331Z,69.70
2018-11-29T06:17:42.675Z,69.70
2018-11-29T06:20:14.020Z,69.30
2018-11-29T06:22:41.411Z,69.10
2018-11-29T06:25:09.087Z,69.00
2018-11-29T06:27:36.510Z,69.20
2018-11-29T06:30:07.502Z,69.50
2018-11-29T06:32:34.890Z,69.10
2018-11-29T06:35:02.415Z,69.00
2018-11-29T06:37:29.718Z,68.90
2018-11-29T06:39:57.010Z,69.60
2018-11-29T06:42:24.398Z,69.30
2018-11-29T06:44:51.723Z,69.60
2018-11-29T06:47:19.043Z,69.10
2018-11-29T06:49:46.348Z,69.00
2018-11-29T06:52:14.339Z,69.00
2018-11-29T06:54:41.654Z,69.70
2018-11-29T06:57:08.984Z,70.20
2018-11-29T06:59:36.217Z,70.10
2018-11-29T07:02:03.827Z,69.20
2018-11-29T07:04:31.114Z,69.40
2018-11-29T07:06:58.401Z,69.40
2018-11-29T07:09:25.701Z,68.90
2018-11-29T07:11:53.097Z,69.30
2018-11-29T07:14:20.415Z,69.10
2018-11-29T07:16:47.721Z,69.50
2018-11-29T07:19:15.204Z,68.70
2018-11-29T07:21:50.729Z,69.40
2018-11-29T07:24:18.555Z,69.70
2018-11-29T07:26:46.804Z,69.10
2018-11-29T07:29:16.909Z,69.20
2018-11-29T07:31:41.483Z,69.10
2018-11-29T07:34:08.887Z,68.60
2018-11-29T07:36:36.232Z,69.10
2018-11-29T07:39:05.998Z,69.30
2018-11-29T07:41:33.306Z,69.00
2018-11-29T07:44:00.550Z,69.40
2018-11-29T07:46:27.834Z,69.00
2018-11-29T07:48:55.155Z,69.40
2018-11-29T07:51:22.389Z,70.00
2018-11-29T07:53:49.662Z,69.20
2018-11-29T07:56:17.756Z,69.80
2018-11-29T07:58:45.058Z,69.00
2018-11-29T08:01:12.360Z,69.30
2018-11-29T08:03:39.708Z,68.80
2018-11-29T08:06:07.044Z,69.60
2018-11-29T08:08:35.422Z,69.00
2018-11-29T08:11:02.739Z,70.00
2018-11-29T08:13:30.011Z,69.50
2018-11-29T08:15:57.351Z,68.90
2018-11-29T08:18:24.712Z,68.90
2018-11-29T08:20:51.998Z,69.30
2018-11-29T08:23:19.263Z,68.90
2018-11-29T08:25:46.548Z,68.70
2018-11-29T08:28:13.850Z,69.20
2018-11-29T08:30:41.186Z,68.90
2018-11-29T08:33:08.495Z,69.00
2018-11-29T08:35:35.917Z,68.20
2018-11-29T08:38:03.690Z,68.90
2018-11-29T08:40:30.613Z,68.40
2018-11-29T08:42:57.944Z,68.80
2018-11-29T08:45:25.351Z,68.70
2018-11-29T08:47:52.638Z,69.30
2018-11-29T08:50:19.948Z,69.50
2018-11-29T08:52:48.070Z,68.60
2018-11-29T08:55:18.767Z,68.00
2018-11-29T08:57:46.872Z,67.20
2018-11-29T09:00:15.359Z,67.20
2018-11-29T09:02:42.774Z,67.20
2018-11-29T09:05:10.920Z,67.50
2018-11-29T09:07:38.239Z,67.10
2018-11-29T09:10:09.623Z,67.10
2018-11-29T09:12:36.864Z,66.70
2018-11-29T09:15:05.499Z,66.70
2018-11-29T09:17:32.818Z,67.10
2018-11-29T09:20:00.662Z,67.30
2018-11-29T09:22:27.906Z,67.30
2018-11-29T09:24:55.219Z,67.10
2018-11-29T09:27:22.542Z,67.20
2018-11-29T09:29:49.793Z,66.90
2018-11-29T09:32:17.082Z,66.60
2018-11-29T09:34:44.395Z,66.50
2018-11-29T09:37:11.707Z,66.40
2018-11-29T09:39:39.056Z,66.60
2018-11-29T09:42:06.375Z,66.10
2018-11-29T09:44:33.640Z,66.10
2018-11-29T09:47:00.966Z,66.10
2018-11-29T09:49:28.229Z,67.20
2018-11-29T09:51:55.540Z,67.20
2018-11-29T09:54:22.863Z,66.70
2018-11-29T09:56:50.174Z,65.90
2018-11-29T09:59:17.483Z,65.80
2018-11-29T10:01:44.852Z,66.00
2018-11-29T10:04:12.167Z,66.10
2018-11-29T10:06:39.442Z,65.90
2018-11-29T10:09:08.856Z,66.00
2018-11-29T10:11:36.215Z,65.70
2018-11-29T10:14:03.501Z,65.70
2018-11-29T10:16:30.862Z,65.50
2018-11-29T10:18:58.118Z,66.00
2018-11-29T10:21:25.452Z,66.20
2018-11-29T10:23:52.707Z,66.40
2018-11-29T10:26:20.035Z,66.10
2018-11-29T10:28:47.381Z,66.00
2018-11-29T10:31:14.682Z,65.60
2018-11-29T10:33:42.016Z,65.30
2018-11-29T10:36:09.321Z,65.60
2018-11-29T10:38:36.568Z,65.00
2018-11-29T10:41:04.322Z,65.00
2018-11-29T10:43:31.645Z,65.00
2018-11-29T10:45:58.978Z,65.10
2018-11-29T10:48:26.291Z,65.40
2018-11-29T10:50:53.604Z,66.00
2018-11-29T10:53:20.870Z,65.80
2018-11-29T10:55:48.178Z,66.20
2018-11-29T10:58:15.503Z,65.60
2018-11-29T11:00:48.611Z,66.10
2018-11-29T11:03:19.512Z,65.70
2018-11-29T11:05:48.001Z,65.50
2018-11-29T11:08:16.060Z,65.80
2018-11-29T11:10:42.765Z,65.30
2018-11-29T11:13:10.088Z,65.70
2018-11-29T11:15:37.910Z,66.10
2018-11-29T11:18:06.507Z,65.90
2018-11-29T11:20:33.939Z,65.50
2018-11-29T11:23:01.198Z,65.80
2018-11-29T11:25:28.507Z,66.30
2018-11-29T11:27:55.814Z,65.70
2018-11-29T11:30:23.039Z,66.70
2018-11-29T11:32:51.115Z,66.10
2018-11-29T11:35:18.439Z,65.70
2018-11-29T11:37:45.659Z,65.70
2018-11-29T11:40:14.753Z,65.40
2018-11-29T11:42:42.332Z,65.20
2018-11-29T11:45:11.104Z,65.10
2018-11-29T11:47:38.358Z,64.90
2018-11-29T11:50:11.109Z,65.00
2018-11-29T11:52:38.433Z,64.90
2018-11-29T11:55:05.937Z,64.60
2018-11-29T11:57:33.210Z,64.60
2018-11-29T12:00:00.475Z,64.40
2018-11-29T12:02:27.997Z,64.30
2018-11-29T12:04:55.079Z,64.90
2018-11-29T12:07:22.479Z,64.80
2018-11-29T12:09:49.770Z,64.90
2018-11-29T12:12:17.126Z,64.70
2018-11-29T12:14:44.463Z,64.80
2018-11-29T12:17:11.823Z,64.80
2018-11-29T12:19:39.163Z,64.30
2018-11-29T12:22:06.457Z,64.50
2018-11-29T12:24:33.775Z,64.30
2018-11-29T12:27:01.062Z,64.50
2018-11-29T12:29:28.364Z,64.70
2018-11-29T12:31:55.684Z,64.40
2018-11-29T12:34:23.024Z,64.20
2018-11-29T12:36:50.909Z,64.00
2018-11-29T12:39:18.262Z,64.50
2018-11-29T12:41:45.607Z,64.30
2018-11-29T12:44:12.851Z,64.10
2018-11-29T12:46:40.156Z,64.20
2018-11-29T12:49:07.475Z,64.70
2018-11-29T12:51:34.776Z,65.20
2018-11-29T12:54:02.040Z,65.10
2018-11-29T12:56:29.320Z,65.10
2018-11-29T12:58:56.660Z,64.80
2018-11-29T13:01:24.046Z,65.40
2018-11-29T13:03:51.530Z,65.80
2018-11-29T13:06:18.692Z,65.90
2018-11-29T13:08:45.984Z,66.30
2018-11-29T13:11:13.313Z,65.30
2018-11-29T13:13:40.667Z,66.10
2018-11-29T13:16:07.966Z,65.90
2018-11-29T13:18:35.318Z,65.70
2018-11-29T13:21:02.826Z,65.70
2018-11-29T13:23:30.176Z,65.80
2018-11-29T13:25:57.720Z,66.30
2018-11-29T13:28:25.036Z,66.30
2018-11-29T13:30:52.440Z,66.70
2018-11-29T13:33:19.664Z,66.70
2018-11-29T13:35:46.963Z,67.30
2018-11-29T13:38:15.312Z,66.20
2018-11-29T13:40:44.029Z,65.90
2018-11-29T13:43:11.232Z,66.30
2018-11-29T13:45:38.498Z,65.40
2018-11-29T13:48:07.066Z,66.80
2018-11-29T13:50:34.388Z,65.40
2018-11-29T13:53:01.628Z,65.40
2018-11-29T13:55:28.970Z,66.40
2018-11-29T13:57:56.233Z,67.10
2018-11-29T14:00:23.779Z,67.40
2018-11-29T14:02:57.418Z,67.20
2018-11-29T14:05:24.670Z,66.70
2018-11-29T14:07:52.016Z,67.90
2018-11-29T14:10:20.562Z,66.90
2018-11-29T14:12:49.102Z,66.50
2018-11-29T14:15:18.394Z,66.90
2018-11-29T14:17:45.683Z,67.80
2018-11-29T14:20:13.626Z,68.50
2018-11-29T14:22:40.993Z,67.90
2018-11-29T14:25:09.564Z,67.90
2018-11-29T14:27:36.859Z,67.50
2018-11-29T14:30:11.648Z,67.10
2018-11-29T14:32:38.894Z,67.90
2018-11-29T14:35:06.879Z,68.80
2018-11-29T14:37:34.181Z,69.30
2018-11-29T14:40:01.535Z,69.50
2018-11-29T14:42:28.852Z,68.60
2018-11-29T14:44:56.147Z,68.70
2018-11-29T14:47:23.404Z,68.00
2018-11-29T14:49:50.683Z,69.00
2018-11-29T14:52:17.888Z,69.40
2018-11-29T14:54:45.235Z,69.00
2018-11-29T14:57:12.476Z,69.00
2018-11-29T14:59:39.816Z,69.00
2018-11-29T15:02:07.080Z,70.00
2018-11-29T15:04:34.300Z,70.50
2018-11-29T15:07:01.639Z,70.00
2018-11-29T15:09:28.986Z,70.00
2018-11-29T15:11:56.363Z,69.90
2018-11-29T15:14:23.702Z,70.50
2018-11-29T15:16:50.988Z,70.70
2018-11-29T15:19:18.351Z,70.30
2018-11-29T15:21:45.610Z,70.00
2018-11-29T15:24:12.940Z,70.10
2018-11-29T15:26:40.218Z,70.00
2018-11-29T15:29:07.533Z,70.30
2018-11-29T15:31:34.785Z,70.50
2018-11-29T15:34:02.120Z,70.60
2018-11-29T15:36:29.419Z,70.30
2018-11-29T15:38:56.696Z,70.60
2018-11-29T15:41:24.026Z,70.70
2018-11-29T15:43:51.382Z,70.30
2018-11-29T15:46:18.661Z,71.30
2018-11-29T15:48:46.039Z,71.20
2018-11-29T15:51:13.433Z,71.10
2018-11-29T15:53:40.682Z,71.10
2018-11-29T15:56:07.983Z,70.90
2018-11-29T15:58:35.274Z,70.70
2018-11-29T16:01:02.614Z,70.50
2018-11-29T16:03:29.895Z,71.10
2018-11-29T16:05:57.202Z,70.80
2018-11-29T16:08:24.553Z,70.90
2018-11-29T16:10:51.790Z,70.90
2018-11-29T16:13:19.086Z,70.90
2018-11-29T16:15:46.406Z,71.30
2018-11-29T16:18:13.702Z,71.40
2018-11-29T16:20:41.027Z,70.90
2018-11-29T16:23:09.206Z,71.10
2018-11-29T16:25:36.419Z,71.20
2018-11-29T16:28:05.224Z,71.20
2018-11-29T16:31:03.118Z,71.60
2018-11-29T16:33:32.893Z,71.40
2018-11-29T16:36:00.341Z,71.40
2018-11-29T16:38:27.601Z,71.20
2018-11-29T16:40:54.876Z,71.50
2018-11-29T16:43:22.291Z,71.60
2018-11-29T16:45:49.516Z,71.70
2018-11-29T16:48:16.760Z,71.50
2018-11-29T16:50:44.079Z,71.70
2018-11-29T16:53:11.388Z,71.90
2018-11-29T16:55:38.749Z,72.10
2018-11-29T16:58:09.547Z,72.10
2018-11-29T17:00:36.899Z,72.10
2018-11-29T17:03:04.316Z,72.00
2018-11-29T17:05:31.574Z,72.10
2018-11-29T17:07:58.927Z,72.10
2018-11-29T17:10:26.192Z,72.00
2018-11-29T17:12:55.027Z,72.10
2018-11-29T17:15:22.284Z,71.80
2018-11-29T17:17:49.579Z,71.80
2018-11-29T17:20:18.035Z,71.70
2018-11-29T17:22:46.434Z,71.60
2018-11-29T17:25:13.767Z,71.30
2018-11-29T17:27:41.066Z,71.60
2018-11-29T17:30:17.029Z,71.40
2018-11-29T17:32:44.351Z,71.50
2018-11-29T17:35:11.615Z,71.00
2018-11-29T17:37:38.909Z,71.30
2018-11-29T17:40:08.199Z,71.20
2018-11-29T17:42:35.487Z,71.10
2018-11-29T17:45:03.115Z,71.00
2018-11-29T17:47:30.427Z,70.70
2018-11-29T17:49:57.834Z,70.60
2018-11-29T17:52:25.156Z,70.60
2018-11-29T17:54:52.491Z,71.10
2018-11-29T17:57:19.747Z,70.30
2018-11-29T17:59:47.018Z,70.30
2018-11-29T18:02:14.327Z,70.20
2018-11-29T18:04:41.711Z,70.30
2018-11-29T18:07:09.022Z,70.10
2018-11-29T18:09:36.272Z,70.50
2018-11-29T18:12:03.902Z,70.40
2018-11-29T18:14:31.123Z,69.90
2018-11-29T18:16:58.447Z,70.10
2018-11-29T18:19:25.847Z,70.10
2018-11-29T18:21:53.335Z,70.00
2018-11-29T18:24:20.506Z,69.90
2018-11-29T18:26:47.771Z,70.60
2018-11-29T18:29:15.100Z,69.70
2018-11-29T18:31:42.390Z,69.50
2018-11-29T18:34:09.717Z,69.50
2018-11-29T18:36:36.999Z,69.30
2018-11-29T18:39:07.215Z,69.10
2018-11-29T18:41:34.541Z,69.00
2018-11-29T18:44:01.822Z,68.60
2018-11-29T18:46:29.162Z,69.00
2018-11-29T18:48:56.509Z,68.70
2018-11-29T18:51:23.747Z,68.90
2018-11-29T18:53:50.999Z,68.90
2018-11-29T18:56:18.278Z,68.70
2018-11-29T18:58:45.640Z,68.80
2018-11-29T19:01:12.861Z,68.40
2018-11-29T19:03:40.139Z,67.90
2018-11-29T19:06:07.444Z,68.20
2018-11-29T19:08:34.706Z,68.20
2018-11-29T19:11:02.046Z,68.10
2018-11-29T19:13:29.347Z,67.90
2018-11-29T19:15:56.694Z,67.90
2018-11-29T19:18:24.118Z,68.30
2018-11-29T19:20:51.404Z,68.20
2018-11-29T19:23:18.721Z,68.00
2018-11-29T19:25:46.053Z,68.00
2018-11-29T19:28:13.324Z,67.80
2018-11-29T19:30:40.512Z,68.10
2018-11-29T19:33:17.396Z,68.00
2018-11-29T19:35:41.178Z,68.30
2018-11-29T19:38:08.533Z,67.90
2018-11-29T19:40:35.820Z,67.90
2018-11-29T19:43:03.234Z,67.60
2018-11-29T19:45:30.507Z,68.20
2018-11-29T19:47:57.883Z,68.10
2018-11-29T19:50:25.298Z,67.90
2018-11-29T19:52:54.150Z,67.90
2018-11-29T19:55:22.827Z,68.30
2018-11-29T19:57:50.231Z,68.20
2018-11-29T20:00:17.522Z,68.20
2018-11-29T20:02:45.440Z,67.70
2018-11-29T20:05:12.951Z,67.30
2018-11-29T20:07:40.285Z,67.80
2018-11-29T20:10:09.245Z,67.90
2018-11-29T20:12:36.548Z,67.80
2018-11-29T20:15:05.855Z,67.80
2018-11-29T20:17:33.220Z,68.10
2018-11-29T20:20:00.510Z,68.50
2018-11-29T20:22:27.842Z,67.80
2018-11-29T20:24:55.143Z,67.80
2018-11-29T20:27:22.385Z,67.60
2018-11-29T20:29:49.731Z,67.70
2018-11-29T20:32:17.018Z,68.00
2018-11-29T20:34:44.395Z,67.90
2018-11-29T20:37:11.675Z,68.30
2018-11-29T20:39:39.030Z,67.60
2018-11-29T20:42:06.355Z,68.30
2018-11-29T20:44:33.746Z,67.30
2018-11-29T20:47:01.017Z,67.10
2018-11-29T20:49:28.269Z,67.60
2018-11-29T20:51:55.639Z,67.50
2018-11-29T20:54:22.903Z,67.20
2018-11-29T20:56:50.204Z,67.50
2018-11-29T20:59:17.462Z,67.60
2018-11-29T21:01:44.794Z,67.10
2018-11-29T21:04:12.144Z,67.40
2018-11-29T21:06:39.481Z,67.00
2018-11-29T21:09:09.228Z,66.90
2018-11-29T21:11:36.603Z,67.10
2018-11-29T21:14:03.897Z,66.90
2018-11-29T21:16:31.195Z,66.50
2018-11-29T21:18:58.571Z,66.70
2018-11-29T21:21:25.841Z,66.30
2018-11-29T21:23:53.135Z,66.80
2018-11-29T21:26:20.532Z,66.60
2018-11-29T21:28:47.786Z,66.50
2018-11-29T21:31:15.078Z,66.80
2018-11-29T21:33:42.391Z,66.80
2018-11-29T21:36:09.654Z,66.10
2018-11-29T21:38:36.950Z,66.30
2018-11-29T21:41:04.302Z,66.80
2018-11-29T21:43:31.570Z,66.80
2018-11-29T21:45:58.937Z,66.70
2018-11-29T21:48:26.278Z,66.40
2018-11-29T21:50:53.535Z,66.30
2018-11-29T21:53:20.911Z,66.30
2018-11-29T21:55:48.169Z,66.40
2018-11-29T21:58:15.471Z,66.10
2018-11-29T22:00:42.733Z,66.30
2018-11-29T22:03:10.118Z,66.20
2018-11-29T22:05:37.579Z,66.50
2018-11-29T22:08:04.892Z,66.40
2018-11-29T22:10:32.192Z,66.10
2018-11-29T22:13:00.735Z,65.80
2018-11-29T22:15:26.814Z,66.10
2018-11-29T22:18:04.112Z,66.30
2018-11-29T22:20:31.512Z,66.20
2018-11-29T22:22:58.776Z,66.70
2018-11-29T22:25:26.116Z,66.90
2018-11-29T22:27:53.365Z,67.00
2018-11-29T22:30:20.623Z,66.70
2018-11-29T22:32:47.969Z,66.50
2018-11-29T22:35:15.250Z,66.50
2018-11-29T22:37:42.518Z,66.90
2018-11-29T22:40:09.921Z,67.10
2018-11-29T22:42:37.226Z,66.90
2018-11-29T22:45:06.395Z,67.10
2018-11-29T22:47:33.711Z,67.20
2018-11-29T22:50:01.019Z,67.10
2018-11-29T22:52:28.255Z,67.10
2018-11-29T22:54:55.584Z,67.00
2018-11-29T22:57:22.927Z,66.70
2018-11-29T22:59:50.357Z,66.80
2018-11-29T23:02:17.684Z,67.40
2018-11-29T23:04:44.946Z,67.00
2018-11-29T23:07:12.381Z,67.10
2018-11-29T23:09:39.640Z,66.90
2018-11-29T23:12:06.980Z,67.10
2018-11-29T23:14:34.305Z,67.30
2018-11-29T23:17:01.579Z,67.60
2018-11-29T23:19:28.979Z,67.50
2018-11-29T23:21:56.282Z,67.20
2018-11-29T23:24:23.626Z,67.00
2018-11-29T23:26:50.948Z,66.90
2018-11-29T23:29:18.285Z,66.80
2018-11-29T23:31:45.571Z,67.10
2018-11-29T23:34:12.857Z,66.70
2018-11-29T23:36:40.191Z,66.50
2018-11-29T23:39:07.532Z,66.40
2018-11-29T23:41:34.815Z,66.20
2018-11-29T23:44:02.053Z,66.40
2018-11-29T23:46:29.344Z,66.30
2018-11-29T23:48:56.579Z,66.30
2018-11-29T23:51:23.878Z,66.20
2018-11-29T23:53:51.123Z,66.50
2018-11-29T23:56:18.384Z,66.30
2018-11-29T23:58:45.727Z,66.40
